Time;durP1;ratioP1;P1;durP2;ratioP2;P2;SDS_P1;SDS_P2;PMS_P1;PMS_P2;Temp;Humidity;BMP_temperature;BMP_pressure;BME280_temperature;BME280_humidity;BME280_pressure;Samples;Min_cycle;Max_cycle;Signal;HPM_P1;HPM_P2
2020/12/17 00:00:31;;;;;;;16.63;5.40;;;6.80;92.50;;;;;;5052434;28;20029;-88
2020/12/17 00:02:57;;;;;;;8.43;5.13;;;6.70;92.70;;;;;;5053631;28;20029;-87
2020/12/17 00:05:23;;;;;;;8.90;4.97;;;6.70;92.50;;;;;;5055685;28;20455;-88
2020/12/17 00:07:49;;;;;;;10.23;4.70;;;6.80;92.40;;;;;;5057089;28;20095;-88
2020/12/17 00:10:15;;;;;;;7.93;5.13;;;6.80;92.30;;;;;;5055733;28;20048;-87
2020/12/17 00:12:44;;;;;;;11.00;5.70;;;6.80;92.30;;;;;;5056124;28;20409;-88
2020/12/17 00:15:12;;;;;;;7.93;4.73;;;6.80;92.20;;;;;;5056581;28;20020;-87
2020/12/17 00:17:50;;;;;;;9.33;4.97;;;6.80;92.20;;;;;;5057132;28;20032;-87
2020/12/17 00:20:21;;;;;;;8.50;5.17;;;6.80;92.00;;;;;;5055836;28;20025;-88
2020/12/17 00:22:48;;;;;;;7.15;3.85;;;6.80;92.10;;;;;;5056256;28;20500;-88
2020/12/17 00:25:15;;;;;;;8.13;4.90;;;6.80;92.00;;;;;;5055290;28;20095;-87
2020/12/17 00:27:41;;;;;;;9.47;4.57;;;6.80;92.00;;;;;;5056920;28;20029;-88
2020/12/17 00:30:13;;;;;;;6.60;4.67;;;6.80;91.90;;;;;;5055417;28;20036;-87
2020/12/17 00:32:40;;;;;;;9.90;5.40;;;6.80;92.10;;;;;;5056195;28;20108;-88
2020/12/17 00:35:07;;;;;;;8.70;5.00;;;6.80;91.70;;;;;;5055809;28;20466;-88
2020/12/17 00:37:34;;;;;;;6.83;4.17;;;6.80;91.80;;;;;;5055727;28;20151;-87
2020/12/17 00:40:01;;;;;;;8.20;4.80;;;6.80;91.70;;;;;;5055898;28;20032;-88
2020/12/17 00:42:26;;;;;;;7.33;5.23;;;6.70;91.70;;;;;;5055342;28;20182;-88
2020/12/17 00:44:52;;;;;;;7.93;5.23;;;6.70;91.70;;;;;;5056840;28;20098;-87
2020/12/17 00:47:18;;;;;;;8.87;4.90;;;6.70;91.70;;;;;;5055041;28;20025;-88
2020/12/17 00:49:44;;;;;;;8.20;4.90;;;6.70;91.60;;;;;;5056341;28;20029;-88
2020/12/17 00:52:10;;;;;;;8.00;4.93;;;6.70;91.60;;;;;;5055093;28;20477;-87
2020/12/17 00:54:39;;;;;;;7.23;5.00;;;6.70;91.60;;;;;;5056337;28;20025;-87
2020/12/17 00:57:06;;;;;;;8.70;5.30;;;6.60;91.80;;;;;;5055059;28;20440;-88
2020/12/17 00:59:32;;;;;;;9.27;5.83;;;6.60;91.60;;;;;;5055883;28;20029;-88
2020/12/17 01:01:57;;;;;;;8.27;5.20;;;6.50;91.60;;;;;;5055373;28;20078;-88
2020/12/17 01:04:23;;;;;;;7.33;5.20;;;6.50;91.50;;;;;;5054995;28;20083;-88
2020/12/17 01:06:49;;;;;;;8.60;5.20;;;6.50;91.70;;;;;;5055350;28;20044;-87
2020/12/17 01:09:14;;;;;;;10.13;5.37;;;6.50;91.70;;;;;;5055676;28;20029;-87
2020/12/17 01:11:40;;;;;;;12.73;5.97;;;6.50;91.80;;;;;;5055232;28;20458;-88
2020/12/17 01:14:06;;;;;;;9.80;5.50;;;6.50;91.90;;;;;;5054708;28;20478;-88
2020/12/17 01:16:31;;;;;;;15.07;6.13;;;6.50;91.90;;;;;;5055481;28;20040;-88
2020/12/17 01:18:57;;;;;;;26.93;7.10;;;6.60;92.10;;;;;;5054908;28;20048;-88
2020/12/17 01:21:23;;;;;;;57.07;8.13;;;6.60;91.80;;;;;;5054432;28;20378;-88
2020/12/17 01:23:49;;;;;;;64.93;9.80;;;6.60;92.10;;;;;;5054609;28;20032;-88
2020/12/17 01:26:15;;;;;;;33.80;7.80;;;6.50;92.40;;;;;;5054454;28;20036;-87
2020/12/17 01:28:41;;;;;;;37.40;8.10;;;6.40;92.40;;;;;;5055241;28;20025;-88
2020/12/17 01:31:10;;;;;;;26.37;6.90;;;6.40;92.70;;;;;;5054719;28;20025;-88
2020/12/17 01:33:38;;;;;;;52.07;8.00;;;6.40;92.90;;;;;;5054657;28;20112;-88
2020/12/17 01:36:04;;;;;;;28.73;7.43;;;6.30;92.80;;;;;;5054577;28;20036;-87
2020/12/17 01:38:31;;;;;;;32.03;6.80;;;6.30;93.00;;;;;;5054119;28;20200;-87
2020/12/17 01:40:57;;;;;;;19.00;6.63;;;6.30;93.00;;;;;;5054739;28;20060;-87
2020/12/17 01:43:23;;;;;;;12.23;6.40;;;6.30;92.90;;;;;;5054844;28;20545;-87
2020/12/17 01:45:49;;;;;;;12.97;5.90;;;6.30;92.80;;;;;;5055503;28;20021;-87
2020/12/17 01:48:18;;;;;;;10.97;5.90;;;6.30;92.60;;;;;;5054883;28;20032;-87
2020/12/17 01:50:45;;;;;;;15.77;6.77;;;6.30;92.60;;;;;;5055490;28;20104;-87
2020/12/17 01:53:12;;;;;;;10.43;6.13;;;6.10;92.20;;;;;;5054062;28;20037;-88
2020/12/17 01:55:38;;;;;;;17.03;7.00;;;6.10;92.40;;;;;;5054285;28;20071;-88
2020/12/17 01:58:05;;;;;;;16.80;7.47;;;6.00;92.20;;;;;;5055165;28;20029;-88
2020/12/17 02:00:35;;;;;;;13.17;6.70;;;6.00;92.30;;;;;;5053596;28;20192;-87
2020/12/17 02:03:05;;;;;;;11.83;6.87;;;6.00;92.20;;;;;;5055049;28;20021;-88
2020/12/17 02:05:32;;;;;;;25.27;7.90;;;5.90;92.10;;;;;;5054532;28;20060;-88
2020/12/17 02:07:59;;;;;;;12.73;6.43;;;5.80;91.90;;;;;;5053658;28;20021;-88
2020/12/17 02:10:25;;;;;;;9.20;5.90;;;5.80;92.10;;;;;;5053482;28;20025;-88
2020/12/17 02:12:51;;;;;;;12.30;6.10;;;5.80;92.10;;;;;;5054225;28;20036;-88
2020/12/17 02:15:21;;;;;;;9.30;5.93;;;5.80;91.80;;;;;;5054796;28;20036;-87
2020/12/17 02:17:48;;;;;;;8.97;6.00;;;5.70;91.80;;;;;;5053867;28;20385;-87
2020/12/17 02:20:14;;;;;;;10.23;6.03;;;5.70;91.70;;;;;;5053327;28;20032;-86
2020/12/17 02:22:41;;;;;;;8.37;5.80;;;5.70;91.90;;;;;;5053440;28;20056;-87
2020/12/17 02:25:14;;;;;;;11.13;5.47;;;5.70;91.80;;;;;;5053515;28;20036;-88
2020/12/17 02:27:41;;;;;;;11.80;6.10;;;5.70;91.70;;;;;;5053031;28;20033;-88
2020/12/17 02:30:10;;;;;;;11.13;6.37;;;5.70;91.70;;;;;;5054437;28;20039;-88
2020/12/17 02:32:36;;;;;;;9.07;6.00;;;5.60;91.70;;;;;;5054115;28;20055;-88
2020/12/17 02:35:03;;;;;;;10.00;6.30;;;5.60;91.90;;;;;;5054269;28;20596;-88
2020/12/17 02:37:29;;;;;;;8.67;5.70;;;5.60;91.90;;;;;;5054056;28;20053;-88
2020/12/17 02:39:54;;;;;;;8.53;5.63;;;5.70;92.00;;;;;;5053527;28;20063;-88
2020/12/17 02:42:20;;;;;;;8.70;5.73;;;5.70;92.00;;;;;;5053003;28;20048;-88
2020/12/17 02:44:46;;;;;;;9.70;6.07;;;5.70;91.90;;;;;;5052852;28;20048;-88
2020/12/17 02:47:11;;;;;;;8.17;5.40;;;5.70;91.80;;;;;;5053442;28;20033;-88
2020/12/17 02:49:37;;;;;;;8.80;5.90;;;5.70;91.90;;;;;;5052939;28;20054;-88
2020/12/17 02:52:03;;;;;;;9.47;5.97;;;5.70;91.90;;;;;;5054114;28;20021;-88
2020/12/17 02:54:29;;;;;;;8.97;5.43;;;5.70;91.90;;;;;;5053600;28;20031;-87
2020/12/17 02:56:55;;;;;;;8.83;5.73;;;5.70;91.80;;;;;;5053116;28;20120;-87
2020/12/17 02:59:20;;;;;;;9.80;6.00;;;5.70;91.70;;;;;;5053520;28;20037;-88
2020/12/17 03:01:46;;;;;;;9.67;5.80;;;5.80;91.60;;;;;;5053076;28;20032;-87
2020/12/17 03:04:12;;;;;;;11.00;6.10;;;5.70;91.70;;;;;;5053043;28;20032;-87
2020/12/17 03:06:37;;;;;;;9.70;5.63;;;5.70;91.80;;;;;;5052620;28;20025;-87
2020/12/17 03:09:05;;;;;;;8.53;5.87;;;5.70;91.80;;;;;;5053053;28;20422;-88
2020/12/17 03:11:31;;;;;;;8.43;5.23;;;5.70;91.70;;;;;;5052395;28;20036;-87
2020/12/17 03:13:57;;;;;;;7.63;4.87;;;5.70;91.60;;;;;;5052348;28;20032;-87
2020/12/17 03:16:23;;;;;;;8.13;5.30;;;5.70;91.40;;;;;;5052470;28;20029;-87
2020/12/17 03:18:48;;;;;;;8.37;5.63;;;5.70;91.20;;;;;;5052918;28;20029;-87
2020/12/17 03:21:14;;;;;;;9.87;5.83;;;5.60;91.20;;;;;;5053137;28;20155;-87
2020/12/17 03:23:40;;;;;;;10.93;6.33;;;5.50;91.30;;;;;;5052439;28;20029;-87
2020/12/17 03:26:05;;;;;;;8.17;5.40;;;5.50;91.40;;;;;;5054041;28;20063;-87
2020/12/17 03:28:31;;;;;;;9.07;5.30;;;5.60;91.40;;;;;;5052140;28;20120;-87
2020/12/17 03:30:57;;;;;;;7.93;5.70;;;5.60;91.30;;;;;;5052716;28;20035;-87
2020/12/17 03:33:22;;;;;;;9.47;5.73;;;5.50;91.40;;;;;;5052111;28;20497;-88
2020/12/17 03:35:48;;;;;;;7.80;5.67;;;5.50;91.30;;;;;;5052892;28;20032;-88
2020/12/17 03:38:13;;;;;;;7.73;4.97;;;5.40;91.30;;;;;;5053472;28;20041;-88
2020/12/17 03:40:39;;;;;;;8.10;5.63;;;5.40;91.40;;;;;;5056164;28;20036;-88
2020/12/17 03:43:05;;;;;;;7.47;5.40;;;5.40;91.40;;;;;;5056351;28;20060;-87
2020/12/17 03:45:30;;;;;;;8.07;5.17;;;5.50;91.80;;;;;;5056183;28;20029;-88
2020/12/17 03:47:56;;;;;;;10.10;5.70;;;5.30;91.10;;;;;;5056674;28;20523;-88
2020/12/17 03:50:22;;;;;;;7.03;4.70;;;5.30;91.30;;;;;;5056144;28;20108;-87
2020/12/17 03:52:47;;;;;;;8.07;5.50;;;5.30;91.20;;;;;;5056312;28;20032;-88
2020/12/17 03:55:13;;;;;;;7.50;5.37;;;5.30;91.10;;;;;;5056457;28;20525;-87
2020/12/17 03:57:38;;;;;;;9.97;5.33;;;5.30;91.10;;;;;;5061956;28;20091;-87
2020/12/17 04:00:05;;;;;;;8.43;5.03;;;5.20;91.20;;;;;;5067613;28;20025;-88
2020/12/17 04:02:30;;;;;;;8.97;5.17;;;5.30;91.40;;;;;;5068060;28;20028;-86
2020/12/17 04:04:56;;;;;;;7.47;5.20;;;5.30;91.40;;;;;;5068628;28;20115;-86
2020/12/17 04:07:22;;;;;;;8.77;5.47;;;5.30;91.30;;;;;;5068222;28;20109;-87
2020/12/17 04:09:47;;;;;;;6.47;4.80;;;5.30;91.40;;;;;;5068335;28;20051;-87
2020/12/17 04:12:13;;;;;;;7.73;4.70;;;5.40;91.80;;;;;;5070018;28;20032;-87
2020/12/17 04:14:40;;;;;;;8.27;5.90;;;5.50;91.90;;;;;;5070949;28;20246;-86
2020/12/17 04:17:06;;;;;;;9.73;5.97;;;5.50;91.70;;;;;;5061182;28;20030;-87
2020/12/17 04:19:31;;;;;;;8.33;5.23;;;5.50;91.50;;;;;;5068055;28;20025;-88
2020/12/17 04:21:57;;;;;;;9.13;5.80;;;5.50;91.30;;;;;;5057245;28;20025;-88
2020/12/17 04:24:22;;;;;;;8.63;5.50;;;5.50;91.30;;;;;;5055627;28;20044;-88
2020/12/17 04:26:52;;;;;;;8.37;5.47;;;5.40;91.20;;;;;;5057112;28;20454;-88
2020/12/17 04:29:18;;;;;;;9.23;5.37;;;5.40;91.30;;;;;;5056750;28;20033;-88
2020/12/17 04:31:44;;;;;;;7.47;4.77;;;5.40;91.10;;;;;;5055330;28;20025;-88
2020/12/17 04:34:10;;;;;;;7.77;5.23;;;5.30;91.40;;;;;;5055770;28;20508;-88
2020/12/17 04:36:36;;;;;;;9.00;6.03;;;5.30;91.00;;;;;;5055462;28;20060;-88
2020/12/17 04:39:03;;;;;;;9.23;5.73;;;5.20;90.90;;;;;;5055577;28;20053;-88
2020/12/17 04:41:31;;;;;;;8.37;5.37;;;5.20;91.00;;;;;;5055187;28;20021;-88
2020/12/17 04:43:58;;;;;;;7.33;5.20;;;5.20;91.10;;;;;;5055211;28;20084;-88
2020/12/17 04:46:25;;;;;;;6.93;4.97;;;5.10;91.10;;;;;;5056150;28;20029;-87
2020/12/17 04:48:52;;;;;;;9.77;5.50;;;5.10;91.30;;;;;;5055863;28;20112;-88
2020/12/17 04:51:19;;;;;;;9.53;5.70;;;5.10;91.30;;;;;;5055609;28;20378;-89
2020/12/17 04:53:46;;;;;;;9.80;5.53;;;5.10;91.30;;;;;;5054572;28;20033;-88
2020/12/17 04:56:15;;;;;;;10.47;5.57;;;5.20;91.30;;;;;;5055240;28;20033;-88
2020/12/17 04:58:46;;;;;;;7.73;4.83;;;5.20;91.40;;;;;;5055143;28;20056;-88
2020/12/17 05:01:17;;;;;;;8.43;5.28;;;5.20;91.40;;;;;;5056657;28;20040;-88
2020/12/17 05:03:49;;;;;;;7.67;5.47;;;5.20;91.30;;;;;;5054626;28;20066;-88
2020/12/17 05:06:21;;;;;;;7.32;5.30;;;5.20;91.30;;;;;;5055405;28;20029;-88
2020/12/17 05:08:47;;;;;;;8.40;5.13;;;5.20;91.30;;;;;;5055978;28;20029;-88
2020/12/17 05:11:14;;;;;;;8.77;5.00;;;5.20;91.30;;;;;;5056083;28;20135;-88
2020/12/17 05:13:40;;;;;;;9.33;5.70;;;5.20;91.30;;;;;;5054648;28;20052;-88
2020/12/17 05:16:06;;;;;;;8.27;5.60;;;5.10;91.30;;;;;;5055313;28;20075;-88
2020/12/17 05:18:32;;;;;;;8.87;5.70;;;5.10;91.40;;;;;;5055726;28;20029;-88
2020/12/17 05:20:59;;;;;;;9.77;5.47;;;5.10;91.40;;;;;;5054981;28;20151;-87
2020/12/17 05:23:25;;;;;;;7.73;5.27;;;5.10;91.40;;;;;;5054348;28;20033;-86
2020/12/17 05:25:52;;;;;;;9.03;5.93;;;5.10;91.50;;;;;;5054566;28;20398;-88
2020/12/17 05:28:17;;;;;;;10.70;6.10;;;5.10;91.60;;;;;;5056154;28;20036;-88
2020/12/17 05:30:43;;;;;;;10.00;5.37;;;5.20;91.50;;;;;;5054496;28;20208;-87
2020/12/17 05:33:09;;;;;;;9.20;5.67;;;5.20;91.50;;;;;;5054553;28;20024;-88
2020/12/17 05:35:36;;;;;;;9.67;5.33;;;5.20;91.40;;;;;;5055269;28;20082;-87
2020/12/17 05:38:07;;;;;;;9.23;5.80;;;5.20;91.20;;;;;;5054577;28;20033;-87
2020/12/17 05:40:38;;;;;;;8.17;5.53;;;5.10;91.10;;;;;;5054078;28;20457;-87
2020/12/17 05:43:04;;;;;;;9.37;5.53;;;5.10;90.90;;;;;;5054407;28;20410;-88
2020/12/17 05:45:30;;;;;;;13.10;5.47;;;5.10;90.70;;;;;;5055451;28;20482;-88
2020/12/17 05:48:12;;;;;;;10.33;5.80;;;5.00;90.60;;;;;;5054473;28;20028;-88
2020/12/17 05:50:58;;;;;;;12.65;4.35;;;4.90;90.70;;;;;;5053775;28;20385;-88
2020/12/17 05:53:25;;;;;;;7.83;5.30;;;4.80;90.50;;;;;;5055591;28;20085;-88
2020/12/17 05:56:00;;;;;;;8.93;5.07;;;4.80;90.70;;;;;;5053999;28;20036;-87
2020/12/17 05:58:36;;;;;;;7.57;5.23;;;4.80;90.70;;;;;;5054213;28;20033;-87
2020/12/17 06:01:13;;;;;;;7.33;4.90;;;4.80;90.50;;;;;;5053452;28;20072;-88
2020/12/17 06:03:42;;;;;;;11.60;5.30;;;4.80;90.40;;;;;;5053810;28;20382;-88
2020/12/17 06:06:08;;;;;;;8.03;5.30;;;4.70;90.40;;;;;;5054245;28;20025;-87
2020/12/17 06:08:39;;;;;;;7.10;5.20;;;4.70;90.40;;;;;;5053683;28;20029;-87
2020/12/17 06:11:09;;;;;;;8.73;5.33;;;4.60;90.50;;;;;;5055031;28;20031;-88
2020/12/17 06:13:43;;;;;;;8.20;5.60;;;4.60;90.60;;;;;;5053301;28;20059;-88
2020/12/17 06:16:10;;;;;;;8.40;5.20;;;4.60;90.60;;;;;;5053986;28;20086;-87
2020/12/17 06:18:57;;;;;;;10.90;6.00;;;4.70;90.70;;;;;;5054183;28;20475;-87
2020/12/17 06:21:27;;;;;;;9.23;5.70;;;4.80;90.80;;;;;;5053747;28;20029;-87
2020/12/17 06:23:57;;;;;;;7.80;5.37;;;4.80;90.80;;;;;;5053908;28;20025;-88
2020/12/17 06:26:24;;;;;;;12.20;5.80;;;4.80;90.90;;;;;;5053856;28;20040;-87
2020/12/17 06:28:52;;;;;;;10.73;5.93;;;4.80;90.90;;;;;;5053190;28;20056;-87
2020/12/17 06:31:29;;;;;;;10.10;5.17;;;4.80;90.90;;;;;;5053884;28;20021;-88
2020/12/17 06:34:05;;;;;;;10.70;5.53;;;4.80;90.90;;;;;;5054570;28;20107;-88
2020/12/17 06:36:39;;;;;;;10.13;5.20;;;4.80;90.90;;;;;;5053910;28;20032;-88
2020/12/17 06:39:06;;;;;;;9.30;5.23;;;4.80;90.90;;;;;;5053474;28;20087;-88
2020/12/17 06:41:32;;;;;;;8.40;5.30;;;4.80;90.90;;;;;;5052864;28;20036;-88
2020/12/17 06:43:58;;;;;;;9.23;5.83;;;4.70;90.90;;;;;;5053418;28;20057;-87
2020/12/17 06:46:37;;;;;;;8.20;5.13;;;4.70;90.70;;;;;;5053455;28;20072;-87
2020/12/17 06:49:08;;;;;;;11.23;5.80;;;4.70;90.80;;;;;;5053644;28;20040;-88
2020/12/17 06:51:36;;;;;;;9.18;5.75;;;4.70;90.70;;;;;;5053057;28;20119;-88
2020/12/17 06:54:28;;;;;;;10.30;6.17;;;4.70;90.70;;;;;;5054498;28;20032;-88
2020/12/17 06:57:11;;;;;;;11.40;5.50;;;4.80;90.90;;;;;;5053294;28;20029;-88
2020/12/17 06:59:42;;;;;;;8.50;5.43;;;4.80;90.90;;;;;;5053808;28;20462;-87
2020/12/17 07:02:08;;;;;;;8.03;5.63;;;4.80;90.90;;;;;;5054140;28;20020;-88
2020/12/17 07:04:50;;;;;;;10.87;6.37;;;4.90;90.90;;;;;;5053718;28;20377;-87
2020/12/17 07:07:24;;;;;;;13.00;6.53;;;5.00;91.00;;;;;;5053245;28;20527;-88
2020/12/17 07:09:53;;;;;;;11.50;5.90;;;5.00;91.00;;;;;;5053042;28;20558;-88
2020/12/17 07:12:34;;;;;;;11.27;5.77;;;5.10;91.00;;;;;;5054329;28;20025;-87
2020/12/17 07:15:05;;;;;;;11.00;5.80;;;5.20;91.10;;;;;;5053061;28;20458;-87
2020/12/17 07:17:31;;;;;;;10.47;5.53;;;5.20;91.10;;;;;;5052932;28;20028;-87
2020/12/17 07:19:57;;;;;;;9.47;5.20;;;5.30;91.10;;;;;;5053403;28;20074;-88
2020/12/17 07:22:23;;;;;;;11.50;5.77;;;5.30;91.00;;;;;;5053611;28;20032;-87
2020/12/17 07:24:50;;;;;;;9.07;5.67;;;5.40;91.00;;;;;;5052554;28;20025;-88
2020/12/17 07:27:24;;;;;;;10.03;5.77;;;5.50;90.90;;;;;;5052699;28;20458;-88
2020/12/17 07:30:08;;;;;;;11.53;5.50;;;5.40;90.90;;;;;;5053577;28;20043;-87
2020/12/17 07:32:43;;;;;;;12.13;5.60;;;5.40;91.00;;;;;;5052346;28;20046;-87
2020/12/17 07:35:09;;;;;;;8.83;5.30;;;5.30;91.00;;;;;;5052931;28;20033;-87
2020/12/17 07:37:54;;;;;;;9.73;5.60;;;5.30;91.00;;;;;;5053514;28;20076;-87
2020/12/17 07:40:34;;;;;;;8.77;5.60;;;5.30;91.00;;;;;;5052888;28;20025;-87
2020/12/17 07:43:06;;;;;;;11.57;6.03;;;5.30;91.10;;;;;;5052522;28;20060;-87
2020/12/17 07:45:57;;;;;;;10.20;6.57;;;5.30;91.10;;;;;;5054053;28;20029;-88
2020/12/17 07:48:42;;;;;;;9.37;5.67;;;5.30;91.00;;;;;;5036255;28;20278;-87
2020/12/17 07:51:15;;;;;;;12.53;6.30;;;5.30;91.10;;;;;;5053706;28;20040;-87
2020/12/17 07:53:42;;;;;;;11.57;5.80;;;5.30;91.10;;;;;;5052077;28;20051;-87
2020/12/17 07:56:08;;;;;;;7.57;5.60;;;5.30;91.20;;;;;;5052632;28;20025;-88
2020/12/17 07:58:35;;;;;;;12.27;5.73;;;5.30;91.10;;;;;;5052050;28;20385;-85
2020/12/17 08:01:02;;;;;;;8.37;5.10;;;5.30;91.10;;;;;;5052451;28;20057;-87
2020/12/17 08:03:28;;;;;;;10.70;5.93;;;5.30;91.00;;;;;;5052659;28;20024;-87
2020/12/17 08:06:06;;;;;;;12.63;6.17;;;5.30;91.00;;;;;;5052249;28;20025;-87
2020/12/17 08:08:32;;;;;;;12.83;5.33;;;5.30;91.10;;;;;;5052566;28;20017;-87
2020/12/17 08:10:58;;;;;;;9.47;5.33;;;5.30;91.00;;;;;;5052040;28;20078;-87
2020/12/17 08:13:25;;;;;;;10.80;5.73;;;5.30;91.10;;;;;;5052483;28;20108;-87
2020/12/17 08:15:55;;;;;;;9.43;5.57;;;5.30;91.20;;;;;;5051907;28;20060;-87
2020/12/17 08:18:25;;;;;;;11.13;6.13;;;5.30;91.20;;;;;;5052484;28;20051;-88
2020/12/17 08:21:10;;;;;;;10.70;6.20;;;5.30;91.20;;;;;;5051920;28;20111;-87
2020/12/17 08:23:40;;;;;;;11.37;6.30;;;5.30;91.30;;;;;;5051998;28;20052;-87
2020/12/17 08:26:08;;;;;;;13.10;6.37;;;5.30;91.30;;;;;;5057128;28;20033;-87
2020/12/17 08:28:36;;;;;;;10.13;6.20;;;5.30;91.30;;;;;;5057249;28;20041;-88
2020/12/17 08:31:09;;;;;;;10.50;6.83;;;5.40;91.30;;;;;;5056050;28;20422;-87
2020/12/17 08:33:41;;;;;;;12.00;6.63;;;5.30;91.20;;;;;;5065949;28;20032;-87
2020/12/17 08:36:09;;;;;;;15.77;6.70;;;5.40;91.30;;;;;;5063087;28;20028;-86
2020/12/17 08:38:36;;;;;;;11.97;6.43;;;5.30;91.30;;;;;;5068880;28;20253;-87
2020/12/17 08:41:03;;;;;;;12.57;6.60;;;5.50;91.80;;;;;;5068054;28;20096;-86
2020/12/17 08:43:36;;;;;;;10.27;6.50;;;5.60;91.40;;;;;;5065388;28;20048;-86
2020/12/17 08:46:02;;;;;;;10.73;6.37;;;5.70;91.40;;;;;;5065811;28;20017;-86
2020/12/17 08:48:32;;;;;;;9.37;5.70;;;5.80;91.30;;;;;;5063200;28;20029;-86
2020/12/17 08:50:59;;;;;;;10.60;6.20;;;5.80;91.50;;;;;;5061473;28;20025;-86
2020/12/17 08:53:30;;;;;;;13.70;6.40;;;5.90;91.20;;;;;;5056668;28;20021;-87
2020/12/17 08:56:04;;;;;;;10.60;6.10;;;6.00;91.10;;;;;;5054722;28;20041;-85
2020/12/17 08:58:30;;;;;;;8.80;5.97;;;6.00;91.10;;;;;;5055326;28;20037;-86
2020/12/17 09:00:56;;;;;;;9.63;5.67;;;6.00;90.80;;;;;;5054903;28;20285;-86
2020/12/17 09:03:23;;;;;;;9.93;5.40;;;6.10;90.90;;;;;;5055438;28;20151;-86
2020/12/17 09:06:09;;;;;;;10.30;5.77;;;6.10;90.90;;;;;;5054741;28;20066;-87
2020/12/17 09:08:34;;;;;;;10.47;5.60;;;6.30;90.90;;;;;;5054513;28;20040;-87
2020/12/17 09:11:00;;;;;;;11.93;6.30;;;6.20;90.80;;;;;;5054564;28;20020;-87
2020/12/17 09:13:26;;;;;;;11.63;6.47;;;6.30;90.70;;;;;;5055204;28;20032;-87
2020/12/17 09:16:02;;;;;;;12.27;6.37;;;6.40;90.70;;;;;;5055621;28;20036;-87
2020/12/17 09:18:29;;;;;;;10.37;5.67;;;6.50;90.60;;;;;;5054766;28;20466;-87
2020/12/17 09:21:11;;;;;;;11.83;6.20;;;6.50;90.60;;;;;;5055631;28;20032;-87
2020/12/17 09:23:40;;;;;;;10.90;6.03;;;6.60;90.70;;;;;;5055908;28;20053;-87
2020/12/17 09:26:13;;;;;;;10.70;6.50;;;6.70;90.60;;;;;;5054393;28;20124;-85
2020/12/17 09:28:57;;;;;;;10.80;6.60;;;6.70;90.60;;;;;;5054932;28;20037;-87
2020/12/17 09:31:34;;;;;;;13.27;6.83;;;6.70;90.40;;;;;;5054739;28;20035;-84
2020/12/17 09:34:14;;;;;;;14.90;7.17;;;6.90;90.40;;;;;;5055151;28;20033;-85
2020/12/17 09:36:43;;;;;;;15.83;6.70;;;6.90;90.40;;;;;;5054425;28;20028;-86
2020/12/17 09:39:15;;;;;;;16.60;7.10;;;7.00;90.40;;;;;;5054834;28;20025;-86
2020/12/17 09:41:57;;;;;;;15.10;7.18;;;7.10;90.40;;;;;;5055311;28;20029;-88
2020/12/17 09:44:32;;;;;;;16.80;7.33;;;7.20;90.30;;;;;;5057010;28;20049;-85
2020/12/17 09:46:59;;;;;;;15.67;7.27;;;7.20;90.20;;;;;;5056263;28;20025;-85
2020/12/17 09:49:28;;;;;;;15.87;7.10;;;7.30;90.20;;;;;;5056402;28;20029;-86
2020/12/17 09:52:06;;;;;;;15.00;7.50;;;7.40;90.00;;;;;;5054889;28;20029;-86
2020/12/17 09:54:33;;;;;;;14.37;7.20;;;7.40;89.50;;;;;;5056573;28;20032;-87
2020/12/17 09:57:14;;;;;;;14.63;6.67;;;7.40;89.50;;;;;;5054967;28;20068;-85
2020/12/17 09:59:42;;;;;;;15.20;6.50;;;7.30;89.50;;;;;;5055970;28;20036;-85
2020/12/17 10:02:13;;;;;;;12.60;7.10;;;7.30;89.70;;;;;;5055078;28;20442;-86
2020/12/17 10:04:42;;;;;;;12.83;6.00;;;7.40;89.70;;;;;;5055893;28;20457;-85
2020/12/17 10:07:09;;;;;;;13.90;6.87;;;7.40;89.60;;;;;;5054156;28;20258;-84
2020/12/17 10:09:36;;;;;;;10.50;5.87;;;7.40;89.50;;;;;;5055185;28;20573;-86
2020/12/17 10:12:03;;;;;;;12.30;5.90;;;7.50;89.20;;;;;;5053709;28;20120;-87
2020/12/17 10:14:29;;;;;;;14.73;6.73;;;7.50;89.10;;;;;;5054050;28;20029;-86
2020/12/17 10:16:57;;;;;;;15.50;7.13;;;7.50;89.20;;;;;;5053596;28;20051;-87
2020/12/17 10:19:24;;;;;;;12.53;6.57;;;7.50;89.40;;;;;;5054001;28;20021;-87
2020/12/17 10:21:50;;;;;;;13.40;6.50;;;7.50;89.20;;;;;;5053653;28;20024;-86
2020/12/17 10:24:16;;;;;;;12.80;6.90;;;7.50;89.00;;;;;;5053864;28;20033;-86
2020/12/17 10:26:42;;;;;;;14.07;6.80;;;7.50;89.00;;;;;;5054366;28;20031;-87
2020/12/17 10:29:09;;;;;;;14.47;6.73;;;7.60;89.20;;;;;;5053643;28;20060;-86
2020/12/17 10:31:35;;;;;;;11.13;6.87;;;7.60;89.00;;;;;;5054188;28;20017;-86
2020/12/17 10:34:01;;;;;;;12.57;7.37;;;7.60;88.80;;;;;;5055439;28;20079;-85
2020/12/17 10:36:27;;;;;;;12.13;6.80;;;7.60;89.00;;;;;;5053459;28;20024;-86
2020/12/17 10:38:53;;;;;;;13.13;6.97;;;7.70;89.30;;;;;;5053581;28;20040;-87
2020/12/17 10:41:27;;;;;;;13.90;6.67;;;7.70;89.40;;;;;;5053322;28;20095;-87
2020/12/17 10:43:54;;;;;;;13.50;6.97;;;7.70;89.70;;;;;;5054267;28;20044;-87
2020/12/17 10:46:20;;;;;;;10.90;6.70;;;7.70;89.90;;;;;;5054523;28;20103;-87
2020/12/17 10:48:46;;;;;;;12.80;6.80;;;7.70;90.00;;;;;;5052427;28;20069;-87
2020/12/17 10:51:13;;;;;;;15.10;7.00;;;7.80;90.10;;;;;;5053611;28;20051;-87
2020/12/17 10:53:40;;;;;;;13.80;7.00;;;7.80;89.90;;;;;;5053249;28;20436;-85
2020/12/17 10:56:08;;;;;;;14.73;6.93;;;7.80;90.10;;;;;;5052680;28;20021;-86
2020/12/17 10:58:34;;;;;;;18.33;8.07;;;7.90;90.10;;;;;;5053319;28;20415;-85
2020/12/17 11:01:00;;;;;;;17.83;7.50;;;7.90;90.10;;;;;;5052585;28;20067;-85
2020/12/17 11:03:27;;;;;;;13.63;7.57;;;8.00;90.00;;;;;;5053238;28;20072;-86
2020/12/17 11:05:53;;;;;;;13.13;6.93;;;8.00;89.70;;;;;;5052754;28;20072;-86
2020/12/17 11:08:20;;;;;;;18.20;7.47;;;8.10;89.80;;;;;;5053286;28;20021;-86
2020/12/17 11:10:45;;;;;;;15.20;7.17;;;8.10;89.50;;;;;;5052651;28;20083;-87
2020/12/17 11:13:11;;;;;;;12.50;7.03;;;8.20;89.70;;;;;;5053109;28;20021;-85
2020/12/17 11:15:37;;;;;;;12.90;7.37;;;8.10;89.80;;;;;;5052971;28;20029;-86
2020/12/17 11:18:03;;;;;;;12.93;7.57;;;8.10;90.00;;;;;;5052727;28;20417;-86
2020/12/17 11:20:28;;;;;;;16.27;7.40;;;8.10;90.00;;;;;;5053132;28;20347;-86
2020/12/17 11:22:54;;;;;;;12.17;7.10;;;8.10;90.00;;;;;;5052437;28;20021;-86
2020/12/17 11:25:20;;;;;;;15.07;7.63;;;8.10;90.00;;;;;;5053833;28;20021;-85
2020/12/17 11:27:47;;;;;;;14.10;7.67;;;8.10;89.90;;;;;;5052573;28;20071;-87
2020/12/17 11:30:13;;;;;;;14.47;8.33;;;8.10;90.00;;;;;;5053356;28;20032;-86
2020/12/17 11:32:39;;;;;;;15.53;6.97;;;8.10;89.90;;;;;;5054082;28;20021;-87
2020/12/17 11:35:06;;;;;;;12.20;7.53;;;8.20;90.00;;;;;;5051984;28;20043;-86
2020/12/17 11:37:33;;;;;;;14.50;7.57;;;8.10;90.00;;;;;;5054025;28;20466;-86
2020/12/17 11:40:00;;;;;;;14.67;7.53;;;8.20;89.90;;;;;;5052594;28;20120;-85
2020/12/17 11:42:26;;;;;;;12.93;7.63;;;8.20;89.90;;;;;;5052892;28;20386;-86
2020/12/17 11:44:51;;;;;;;15.23;7.67;;;8.20;89.90;;;;;;5052762;28;20044;-86
2020/12/17 11:47:17;;;;;;;14.33;7.83;;;8.20;89.80;;;;;;5052698;28;20115;-86
2020/12/17 11:49:42;;;;;;;16.67;7.80;;;8.30;90.00;;;;;;5052678;28;20025;-86
2020/12/17 11:52:08;;;;;;;12.77;7.53;;;8.20;89.60;;;;;;5052489;28;20021;-85
2020/12/17 11:54:34;;;;;;;14.70;7.70;;;8.30;89.60;;;;;;5052726;28;20029;-86
2020/12/17 11:57:00;;;;;;;14.10;8.00;;;8.30;89.80;;;;;;5052177;28;20142;-87
2020/12/17 11:59:28;;;;;;;14.20;7.73;;;8.30;89.70;;;;;;5053484;28;20025;-85
2020/12/17 12:01:54;;;;;;;13.13;6.97;;;8.40;89.80;;;;;;5056106;28;20069;-87
2020/12/17 12:04:19;;;;;;;13.67;8.33;;;8.40;89.50;;;;;;5057388;28;20032;-86
2020/12/17 12:06:49;;;;;;;12.83;7.27;;;8.40;89.20;;;;;;5056268;28;20381;-86
2020/12/17 12:09:18;;;;;;;15.63;7.60;;;8.50;89.40;;;;;;5056383;28;20028;-86
2020/12/17 12:11:45;;;;;;;12.63;6.97;;;8.50;89.20;;;;;;5056352;28;20021;-86
2020/12/17 12:14:12;;;;;;;13.23;7.77;;;8.60;88.90;;;;;;5057186;28;20068;-85
2020/12/17 12:16:38;;;;;;;13.87;6.70;;;8.60;88.80;;;;;;5056278;28;20025;-86
2020/12/17 12:19:03;;;;;;;12.77;6.63;;;8.60;88.90;;;;;;5056865;28;20437;-86
2020/12/17 12:21:29;;;;;;;13.43;7.33;;;8.70;88.90;;;;;;5055985;28;20446;-85
2020/12/17 12:23:54;;;;;;;16.00;7.67;;;8.70;89.30;;;;;;5055541;28;20056;-86
2020/12/17 12:26:20;;;;;;;11.00;6.10;;;8.70;88.60;;;;;;5056008;28;20028;-85
2020/12/17 12:28:46;;;;;;;11.40;6.03;;;8.70;88.70;;;;;;5056038;28;20029;-86
2020/12/17 12:31:14;;;;;;;13.90;6.10;;;8.60;88.30;;;;;;5055516;28;20032;-86
2020/12/17 12:33:40;;;;;;;14.60;7.07;;;8.80;88.40;;;;;;5055799;28;20021;-87
2020/12/17 12:36:06;;;;;;;11.87;6.23;;;8.80;88.40;;;;;;5055430;28;20028;-87
2020/12/17 12:38:32;;;;;;;10.63;6.05;;;8.80;88.40;;;;;;5056854;28;20017;-86
2020/12/17 12:40:57;;;;;;;11.10;6.20;;;8.90;88.60;;;;;;5055620;28;20048;-86
2020/12/17 12:43:23;;;;;;;9.55;5.25;;;8.90;88.10;;;;;;5056534;28;20045;-86
2020/12/17 12:45:52;;;;;;;14.45;6.22;;;8.90;88.10;;;;;;5055816;28;20027;-86
2020/12/17 12:48:18;;;;;;;11.07;6.77;;;8.90;88.10;;;;;;5055565;28;20021;-85
2020/12/17 12:50:48;;;;;;;11.68;6.82;;;8.90;88.40;;;;;;5055647;28;20043;-86
2020/12/17 12:53:14;;;;;;;11.20;7.28;;;8.90;88.00;;;;;;5055079;28;20343;-85
2020/12/17 12:55:40;;;;;;;11.10;6.20;;;9.00;88.10;;;;;;5055412;28;20131;-86